Time;durP1;ratioP1;P1;durP2;ratioP2;P2;SDS_P1;SDS_P2;PMS_P1;PMS_P2;Temp;Humidity;BMP_temperature;BMP_pressure;BME280_temperature;BME280_humidity;BME280_pressure;Samples;Min_cycle;Max_cycle;Signal;HPM_P1;HPM_P2
2022/08/25 00:00:48;;;;;;;14.63;8.40;;;;;;;23.19;100.00;101298.28;2103540;28;20448;-69
2022/08/25 00:01:55;;;;;;;17.47;8.70;;;;;;;23.25;100.00;101307.59;2103628;28;20563;-69
2022/08/25 00:02:56;;;;;;;16.20;8.80;;;;;;;22.81;100.00;101242.19;2103106;28;20237;-68
2022/08/25 00:03:58;;;;;;;15.97;8.90;;;;;;;23.20;100.00;101302.66;2095382;28;20278;-69
2022/08/25 00:04:58;;;;;;;13.80;8.90;;;;;;;23.23;100.00;101312.97;2102991;28;20205;-69
2022/08/25 00:05:59;;;;;;;13.57;8.93;;;;;;;23.22;100.00;101302.91;2104704;28;20202;-69
2022/08/25 00:07:00;;;;;;;14.77;9.77;;;;;;;22.26;100.00;101163.38;2103486;28;20202;-69
2022/08/25 00:08:04;;;;;;;11.93;8.70;;;;;;;23.18;100.00;101302.41;2103862;28;20401;-69
2022/08/25 00:09:07;;;;;;;15.53;8.93;;;;;;;23.16;100.00;101300.03;2104200;28;20278;-69
2022/08/25 00:10:08;;;;;;;13.77;8.93;;;;;;;22.52;100.00;101206.50;2103178;28;20179;-69
2022/08/25 00:11:15;;;;;;;14.53;9.70;;;;;;;23.14;100.00;101299.75;2104406;28;20226;-69
2022/08/25 00:12:15;;;;;;;14.20;9.00;;;;;;;23.14;100.00;101299.00;2104295;28;20231;-69
2022/08/25 00:13:16;;;;;;;15.70;9.17;;;;;;;23.10;100.00;101296.41;2104095;28;20195;-69
2022/08/25 00:14:21;;;;;;;15.17;9.37;;;;;;;23.06;100.00;101289.41;2104818;28;20222;-69
2022/08/25 00:15:21;;;;;;;15.73;8.83;;;;;;;23.10;100.00;101295.63;2102759;28;20198;-69
2022/08/25 00:16:23;;;;;;;13.77;8.73;;;;;;;22.76;100.00;101240.88;2104034;28;20198;-69
2022/08/25 00:17:24;;;;;;;14.23;9.13;;;;;;;23.07;100.00;101302.25;2104374;28;20247;-69
2022/08/25 00:18:25;;;;;;;17.47;9.77;;;;;;;23.09;100.00;101306.13;2103574;28;20243;-69
2022/08/25 00:19:30;;;;;;;13.37;8.80;;;;;;;23.10;100.00;101295.63;2104871;28;20198;-69
2022/08/25 00:20:31;;;;;;;15.87;9.33;;;;;;;23.07;100.00;101300.22;2105022;28;20229;-69
2022/08/25 00:21:32;;;;;;;14.87;9.27;;;;;;;22.77;100.00;101267.84;2104797;28;20222;-69
2022/08/25 00:22:32;;;;;;;15.47;8.90;;;;;;;23.09;100.00;101296.91;2103739;28;20194;-69
2022/08/25 00:23:33;;;;;;;12.87;9.20;;;;;;;23.07;100.00;101303.06;2103980;28;20195;-69
2022/08/25 00:24:34;;;;;;;16.13;8.93;;;;;;;23.03;100.00;101298.91;2103810;28;20255;-69
2022/08/25 00:25:34;;;;;;;15.57;9.10;;;;;;;23.09;100.00;101308.22;2103189;28;20198;-69
2022/08/25 00:26:38;;;;;;;16.17;9.63;;;;;;;23.08;100.00;101304.59;2102044;28;20313;-69
2022/08/25 00:27:39;;;;;;;13.60;9.00;;;;;;;23.08;100.00;101315.91;2103479;28;20203;-69
2022/08/25 00:28:40;;;;;;;14.83;9.37;;;;;;;23.10;100.00;101312.56;2104496;28;20218;-69
2022/08/25 00:29:40;;;;;;;15.60;9.10;;;;;;;23.08;100.00;101309.50;2104934;28;20186;-69
2022/08/25 00:30:41;;;;;;;16.97;9.17;;;;;;;23.06;100.00;101314.84;2104394;28;20238;-69
2022/08/25 00:31:44;;;;;;;14.60;8.57;;;;;;;23.06;100.00;101309.19;2104917;28;20187;-69
2022/08/25 00:32:45;;;;;;;15.77;9.13;;;;;;;23.08;100.00;101306.66;2103846;28;20187;-69
2022/08/25 00:33:47;;;;;;;11.33;8.73;;;;;;;23.04;100.00;101308.94;2103965;28;20191;-69
2022/08/25 00:34:48;;;;;;;13.03;9.40;;;;;;;22.80;100.00;101280.22;2103946;28;20195;-69
2022/08/25 00:35:49;;;;;;;16.93;9.00;;;;;;;23.01;100.00;101307.88;2103009;28;20203;-69
2022/08/25 00:36:50;;;;;;;16.70;8.47;;;;;;;23.02;100.00;101317.91;2103875;28;20182;-69
2022/08/25 00:37:51;;;;;;;15.33;8.30;;;;;;;23.01;100.00;101316.38;2103882;28;20529;-69
2022/08/25 00:38:51;;;;;;;18.03;8.77;;;;;;;23.02;100.00;101312.25;2104895;28;20255;-69
2022/08/25 00:39:51;;;;;;;16.60;8.67;;;;;;;23.04;100.00;101309.72;2104590;28;20205;-69
2022/08/25 00:41:05;;;;;;;13.87;8.17;;;;;;;23.04;100.00;101325.91;2103136;28;20203;-69
2022/08/25 00:42:06;;;;;;;15.37;8.57;;;;;;;23.04;100.00;101311.75;2102996;28;20540;-69
2022/08/25 00:43:07;;;;;;;11.60;8.00;;;;;;;22.92;100.00;101290.34;2104710;28;20190;-68
2022/08/25 00:44:10;;;;;;;22.00;9.20;;;;;;;23.02;100.00;101312.25;2104323;28;20191;-69
2022/08/25 00:45:11;;;;;;;18.13;8.70;;;;;;;23.02;100.00;101314.34;2103909;28;20197;-69
2022/08/25 00:46:14;;;;;;;14.57;8.80;;;;;;;23.02;100.00;101309.44;2103561;28;20202;-69
2022/08/25 00:47:16;;;;;;;17.13;8.50;;;;;;;22.76;100.00;101268.34;2104351;28;20827;-69
2022/08/25 00:48:16;;;;;;;16.03;7.97;;;;;;;23.02;100.00;101308.69;2103089;28;20198;-69
2022/08/25 00:49:32;;;;;;;14.50;7.97;;;;;;;23.00;100.00;101302.72;2104607;28;20191;-69
2022/08/25 00:50:33;;;;;;;12.77;7.83;;;;;;;22.63;100.00;101243.31;2104175;28;20199;-69
2022/08/25 00:51:36;;;;;;;14.30;7.87;;;;;;;23.01;100.00;101298.63;2105493;28;20222;-69
2022/08/25 00:52:42;;;;;;;17.97;7.90;;;;;;;22.99;100.00;101296.31;2105511;28;20178;-69
2022/08/25 00:53:43;;;;;;;15.23;8.53;;;;;;;22.95;100.00;101287.28;2106154;28;20565;-69
2022/08/25 00:54:48;;;;;;;17.17;8.63;;;;;;;23.01;100.00;101293.75;2104835;28;20199;-69
2022/08/25 00:55:49;;;;;;;18.77;8.77;;;;;;;23.01;100.00;101301.44;2104731;28;20187;-69
2022/08/25 00:56:50;;;;;;;18.60;9.57;;;;;;;22.86;100.00;101278.19;2104507;28;20604;-69
2022/08/25 00:58:01;;;;;;;16.47;8.90;;;;;;;22.68;100.00;101239.00;2105937;28;20191;-69
2022/08/25 00:59:04;;;;;;;17.57;8.90;;;;;;;23.00;100.00;101303.53;2103174;28;20213;-69
2022/08/25 01:00:10;;;;;;;16.23;8.63;;;;;;;22.97;100.00;101286.78;2105754;28;20566;-69
2022/08/25 01:01:11;;;;;;;13.40;8.13;;;;;;;22.98;100.00;101291.91;2105688;28;20644;-69
2022/08/25 01:02:14;;;;;;;15.43;9.33;;;;;;;22.98;100.00;101291.91;2105423;28;20214;-69
2022/08/25 01:03:17;;;;;;;20.13;8.80;;;;;;;22.96;100.00;101294.47;2106022;28;20222;-69
2022/08/25 01:04:18;;;;;;;18.27;9.13;;;;;;;22.99;100.00;101299.16;2103809;28;20191;-69
2022/08/25 01:05:20;;;;;;;18.90;8.63;;;;;;;22.95;100.00;101298.59;2105032;28;20187;-69
2022/08/25 01:06:20;;;;;;;15.17;9.10;;;;;;;22.70;100.00;101250.59;2105268;28;20179;-69
2022/08/25 01:07:22;;;;;;;11.40;8.83;;;;;;;22.94;100.00;101290.59;2105393;28;20182;-69
2022/08/25 01:08:27;;;;;;;14.23;8.40;;;;;;;22.92;100.00;101284.69;2104689;28;20217;-69
2022/08/25 01:09:31;;;;;;;18.83;9.20;;;;;;;22.50;100.00;101228.84;2104445;28;20239;-69
2022/08/25 01:10:34;;;;;;;13.17;8.83;;;;;;;22.96;100.00;101290.88;2105287;28;20424;-69
2022/08/25 01:11:36;;;;;;;13.63;8.63;;;;;;;22.95;100.00;101292.16;2105954;28;20444;-69
2022/08/25 01:12:36;;;;;;;11.63;8.97;;;;;;;22.94;100.00;101291.41;2105175;28;20221;-69
2022/08/25 01:13:46;;;;;;;12.27;8.80;;;;;;;22.94;100.00;101293.44;2105041;28;20452;-69
2022/08/25 01:14:49;;;;;;;12.77;8.57;;;;;;;22.95;100.00;101292.16;2104227;28;20187;-69
2022/08/25 01:15:53;;;;;;;11.17;8.50;;;;;;;22.94;100.00;101294.22;2104777;28;20195;-68
2022/08/25 01:16:54;;;;;;;12.97;8.57;;;;;;;22.48;100.00;101230.63;2103706;28;20191;-69
2022/08/25 01:17:56;;;;;;;14.50;8.60;;;;;;;22.94;100.00;101299.88;2105470;28;20275;-69
2022/08/25 01:18:58;;;;;;;13.33;8.90;;;;;;;22.93;100.00;101301.13;2105802;28;20191;-69
2022/08/25 01:19:58;;;;;;;16.13;8.43;;;;;;;22.44;100.00;101224.38;2105123;28;20182;-69
2022/08/25 01:20:59;;;;;;;17.13;8.80;;;;;;;22.92;100.00;101296.75;2105828;28;20187;-69
2022/08/25 01:22:00;;;;;;;14.57;8.93;;;;;;;22.86;100.00;101295.94;2105859;28;20198;-69
2022/08/25 01:23:01;;;;;;;14.60;8.50;;;;;;;22.84;100.00;101292.06;2105854;28;20194;-69
2022/08/25 01:24:02;;;;;;;17.53;8.40;;;;;;;22.88;100.00;101299.03;2105106;28;20194;-69
2022/08/25 01:25:13;;;;;;;15.53;8.60;;;;;;;22.85;100.00;101299.25;2104588;28;20652;-69
2022/08/25 01:26:21;;;;;;;11.57;8.37;;;;;;;22.86;100.00;101297.97;2104004;28;20726;-69
2022/08/25 01:27:21;;;;;;;13.80;8.63;;;;;;;22.85;100.00;101302.09;2104186;28;20557;-69
2022/08/25 01:28:22;;;;;;;16.67;8.80;;;;;;;22.37;100.00;101225.59;2105352;28;20187;-69
2022/08/25 01:29:26;;;;;;;15.10;8.63;;;;;;;22.86;100.00;101295.16;2105384;28;20178;-69
2022/08/25 01:30:26;;;;;;;14.37;8.90;;;;;;;22.53;100.00;101236.34;2105164;28;20312;-69
2022/08/25 01:31:28;;;;;;;14.23;8.70;;;;;;;22.88;100.00;101287.72;2105056;28;20179;-69
2022/08/25 01:32:32;;;;;;;13.13;8.13;;;;;;;22.53;100.00;101250.47;2105325;28;20191;-69
2022/08/25 01:33:33;;;;;;;13.13;9.07;;;;;;;22.83;100.00;101291.28;2104730;28;20266;-69
2022/08/25 01:34:39;;;;;;;16.33;9.00;;;;;;;22.84;100.00;101289.25;2104663;28;20188;-69
2022/08/25 01:35:40;;;;;;;15.30;8.80;;;;;;;22.81;100.00;101296.66;2105219;28;20179;-69
2022/08/25 01:36:43;;;;;;;15.30;8.50;;;;;;;22.76;100.00;101279.66;2105269;28;20199;-69
2022/08/25 01:37:43;;;;;;;16.17;8.70;;;;;;;22.81;100.00;101291.03;2105063;28;20236;-69
2022/08/25 01:38:44;;;;;;;14.33;8.33;;;;;;;22.80;100.00;101286.66;2105711;28;20195;-69
2022/08/25 01:39:45;;;;;;;16.67;8.90;;;;;;;22.37;100.00;101217.13;2104829;28;20175;-69
2022/08/25 01:40:45;;;;;;;14.77;8.63;;;;;;;22.48;100.00;101242.72;2104670;28;20179;-69
2022/08/25 01:42:10;;;;;;;11.03;8.20;;;;;;;22.81;100.00;101290.22;2105596;28;20189;-69
2022/08/25 01:43:24;;;;;;;18.60;9.40;;;;;;;22.56;100.00;101251.50;2105440;28;20174;-69
2022/08/25 01:44:25;;;;;;;13.23;8.43;;;;;;;22.82;100.00;101288.97;2105196;28;20190;-69
2022/08/25 01:45:26;;;;;;;13.50;8.03;;;;;;;22.81;100.00;101296.66;2104671;28;20182;-69
2022/08/25 01:46:26;;;;;;;12.77;8.30;;;;;;;22.79;100.00;101289.97;2104553;28;20331;-69
2022/08/25 01:47:27;;;;;;;12.43;8.30;;;;;;;21.99;100.00;101169.56;2104552;28;20671;-69
2022/08/25 01:48:27;;;;;;;15.57;8.57;;;;;;;22.71;100.00;101288.84;2105673;28;20256;-69
2022/08/25 01:49:28;;;;;;;13.43;8.30;;;;;;;22.66;100.00;101281.88;2104989;28;20331;-69
2022/08/25 01:50:28;;;;;;;16.87;8.60;;;;;;;22.71;100.00;101288.84;2105016;28;20885;-69
2022/08/25 01:51:36;;;;;;;14.63;8.87;;;;;;;22.64;100.00;101289.31;2105565;28;20872;-69
2022/08/25 01:52:49;;;;;;;15.47;8.30;;;;;;;22.66;100.00;101295.22;2104584;28;20195;-69
2022/08/25 01:53:50;;;;;;;13.27;8.60;;;;;;;22.52;100.00;101265.06;2104939;28;20182;-69
2022/08/25 01:54:50;;;;;;;14.10;8.77;;;;;;;22.66;100.00;101293.19;2103662;28;20933;-69
2022/08/25 01:55:52;;;;;;;13.57;9.10;;;;;;;22.33;100.00;101249.69;2105444;28;20263;-69
2022/08/25 01:56:53;;;;;;;11.63;8.43;;;;;;;22.62;100.00;101291.88;2104619;28;20186;-69
2022/08/25 01:57:54;;;;;;;13.23;8.87;;;;;;;22.63;100.00;101290.59;2104324;28;20179;-69
2022/08/25 01:58:55;;;;;;;15.27;8.33;;;;;;;22.63;100.00;101282.88;2105803;28;20645;-69
2022/08/25 01:59:57;;;;;;;15.20;8.70;;;;;;;22.53;100.00;101284.34;2105448;28;20554;-69
2022/08/25 02:01:01;;;;;;;13.20;8.37;;;;;;;22.63;100.00;101290.59;2105445;28;20189;-69
2022/08/25 02:02:02;;;;;;;12.13;8.90;;;;;;;22.63;100.00;101277.22;2105377;28;20194;-69
2022/08/25 02:03:03;;;;;;;13.57;8.93;;;;;;;22.65;100.00;101288.81;2105552;28;20183;-69
2022/08/25 02:04:03;;;;;;;13.73;8.53;;;;;;;22.64;100.00;101280.84;2105368;28;20186;-69
2022/08/25 02:05:04;;;;;;;15.20;9.13;;;;;;;22.64;100.00;101284.44;2104680;28;21266;-69
2022/08/25 02:06:06;;;;;;;14.10;7.93;;;;;;;22.46;100.00;101264.25;2105151;28;20189;-69
2022/08/25 02:07:07;;;;;;;14.33;8.33;;;;;;;22.61;100.00;101276.22;2104352;28;20429;-69
2022/08/25 02:08:08;;;;;;;15.27;8.77;;;;;;;22.58;100.00;101283.63;2104416;28;20214;-69
2022/08/25 02:09:12;;;;;;;13.60;8.90;;;;;;;22.57;100.00;101282.06;2104749;28;20440;-69
2022/08/25 02:10:12;;;;;;;12.83;9.00;;;;;;;22.13;100.00;101213.03;2105512;28;20198;-69
2022/08/25 02:11:13;;;;;;;11.80;8.70;;;;;;;22.50;100.00;101290.97;2105273;28;20179;-69
2022/08/25 02:12:14;;;;;;;13.37;9.03;;;;;;;22.47;100.00;101282.75;2104900;28;20190;-68
2022/08/25 02:13:15;;;;;;;15.10;9.17;;;;;;;22.51;100.00;101289.72;2104356;28;20445;-69
2022/08/25 02:14:17;;;;;;;13.93;8.50;;;;;;;22.12;100.00;101222.78;2104819;28;20219;-68
2022/08/25 02:15:17;;;;;;;15.73;8.60;;;;;;;22.54;100.00;101287.94;2103810;28;20429;-69
2022/08/25 02:16:23;;;;;;;13.63;9.03;;;;;;;22.53;100.00;101284.34;2104290;28;20424;-69
2022/08/25 02:17:24;;;;;;;15.97;9.07;;;;;;;22.41;100.00;101262.13;2103827;28;20244;-69
2022/08/25 02:18:24;;;;;;;14.50;9.17;;;;;;;22.53;100.00;101280.75;2104714;28;20469;-69
2022/08/25 02:19:25;;;;;;;15.20;8.57;;;;;;;22.25;100.00;101249.38;2105489;28;20262;-69
2022/08/25 02:20:26;;;;;;;14.07;9.03;;;;;;;22.50;100.00;101279.69;2105291;28;20755;-68
2022/08/25 02:21:27;;;;;;;17.63;9.23;;;;;;;22.30;100.00;101262.75;2104408;28;20191;-69
2022/08/25 02:22:27;;;;;;;14.00;8.77;;;;;;;22.41;100.00;101267.75;2104389;28;20186;-69
2022/08/25 02:23:28;;;;;;;13.87;8.93;;;;;;;22.46;100.00;101281.19;2104685;28;20187;-69
2022/08/25 02:24:28;;;;;;;14.27;8.63;;;;;;;21.93;100.00;101204.63;2104407;28;20179;-69
2022/08/25 02:25:29;;;;;;;14.87;9.20;;;;;;;21.83;100.00;101175.00;2103595;28;20190;-69
2022/08/25 02:26:30;;;;;;;14.73;9.37;;;;;;;22.41;100.00;101267.75;2104362;28;20225;-69
2022/08/25 02:27:30;;;;;;;19.43;9.60;;;;;;;22.41;100.00;101262.88;2105024;28;20237;-69
2022/08/25 02:28:31;;;;;;;15.87;9.37;;;;;;;22.34;100.00;101262.53;2103651;28;20555;-69
2022/08/25 02:29:32;;;;;;;12.87;9.23;;;;;;;22.37;100.00;101264.38;2104777;28;20198;-69
2022/08/25 02:30:34;;;;;;;15.67;9.47;;;;;;;21.88;100.00;101189.19;2105171;28;20210;-69
2022/08/25 02:31:35;;;;;;;16.93;9.23;;;;;;;22.34;100.00;101263.31;2105142;28;20535;-69
2022/08/25 02:32:36;;;;;;;14.47;9.87;;;;;;;22.23;100.00;101256.78;2104264;28;20429;-69
2022/08/25 02:33:37;;;;;;;16.73;9.90;;;;;;;22.25;100.00;101274.00;2105213;28;20266;-69
2022/08/25 02:34:39;;;;;;;14.80;9.40;;;;;;;22.22;100.00;101270.13;2104403;28;20183;-69
2022/08/25 02:35:40;;;;;;;15.87;9.80;;;;;;;21.67;100.00;101187.66;2104296;28;20482;-69
2022/08/25 02:36:42;;;;;;;13.33;9.47;;;;;;;21.75;100.00;101200.06;2103904;28;20548;-69
2022/08/25 02:37:43;;;;;;;14.10;9.10;;;;;;;22.14;100.00;101260.53;2104639;28;20562;-69
2022/08/25 02:38:43;;;;;;;14.23;9.73;;;;;;;22.23;100.00;101263.22;2105078;28;20421;-69
2022/08/25 02:39:44;;;;;;;15.23;9.43;;;;;;;22.24;100.00;101264.75;2104959;28;20183;-69
2022/08/25 02:40:44;;;;;;;14.37;9.50;;;;;;;22.18;100.00;101257.50;2104632;28;21652;-69
2022/08/25 02:41:45;;;;;;;16.07;10.00;;;;;;;22.14;100.00;101260.53;2103812;28;20179;-69
2022/08/25 02:42:47;;;;;;;15.50;10.07;;;;;;;22.18;100.00;101260.31;2100892;28;20183;-69
2022/08/25 02:43:48;;;;;;;18.50;9.63;;;;;;;22.21;100.00;101257.28;2104231;28;20579;-69
2022/08/25 02:44:48;;;;;;;14.20;10.23;;;;;;;22.21;100.00;101257.28;2104859;28;20512;-69
2022/08/25 02:45:49;;;;;;;15.03;10.03;;;;;;;22.23;100.00;101262.44;2104565;28;20186;-69
2022/08/25 02:46:49;;;;;;;15.27;10.07;;;;;;;22.23;100.00;101251.91;2104672;28;20240;-69
2022/08/25 02:47:50;;;;;;;13.13;9.10;;;;;;;22.27;100.00;101254.53;2104667;28;20203;-68
2022/08/25 02:48:52;;;;;;;16.27;9.70;;;;;;;22.26;100.00;101259.38;2105363;28;20669;-69
2022/08/25 02:49:52;;;;;;;18.90;9.03;;;;;;;22.03;100.00;101222.94;2104141;28;20245;-69
2022/08/25 02:50:53;;;;;;;12.03;8.93;;;;;;;22.11;100.00;101238.94;2105150;28;20425;-69
2022/08/25 02:51:53;;;;;;;12.47;9.20;;;;;;;22.21;100.00;101248.03;2104800;28;20178;-69
2022/08/25 02:52:54;;;;;;;19.60;9.87;;;;;;;22.24;100.00;101247.81;2105445;28;20179;-69
2022/08/25 02:53:56;;;;;;;13.53;9.40;;;;;;;22.26;100.00;101247.31;2105060;28;20218;-69
2022/08/25 02:54:57;;;;;;;19.43;9.60;;;;;;;22.30;100.00;101243.00;2104305;28;20187;-69
2022/08/25 02:55:59;;;;;;;15.30;10.10;;;;;;;21.48;100.00;101121.53;2103897;28;20506;-69
2022/08/25 02:56:59;;;;;;;17.07;9.27;;;;;;;21.83;100.00;101170.16;2104639;28;20858;-69
2022/08/25 02:58:00;;;;;;;18.57;8.80;;;;;;;22.36;100.00;101255.13;2104717;28;20485;-69
2022/08/25 02:59:01;;;;;;;21.50;9.57;;;;;;;22.25;100.00;101228.81;2104684;28;20183;-69
2022/08/25 03:00:04;;;;;;;17.50;9.30;;;;;;;22.36;100.00;101249.47;2104970;28;20683;-69
2022/08/25 03:01:06;;;;;;;16.43;9.63;;;;;;;22.34;100.00;101243.56;2104603;28;20527;-69
2022/08/25 03:02:06;;;;;;;14.87;9.07;;;;;;;22.39;100.00;101251.31;2105354;28;20425;-69
2022/08/25 03:03:07;;;;;;;14.93;9.57;;;;;;;22.38;100.00;101243.34;2104279;28;20452;-69
2022/08/25 03:04:07;;;;;;;10.77;9.53;;;;;;;21.97;100.00;101197.50;2104284;28;20214;-69
2022/08/25 03:05:10;;;;;;;13.67;9.70;;;;;;;22.32;100.00;101242.50;2104193;28;20252;-69
2022/08/25 03:06:12;;;;;;;13.97;9.57;;;;;;;22.33;100.00;101250.50;2104175;28;20691;-69
2022/08/25 03:07:13;;;;;;;15.07;10.20;;;;;;;22.34;100.00;101242.78;2104640;28;20214;-69
2022/08/25 03:08:14;;;;;;;14.40;9.53;;;;;;;22.31;100.00;101246.63;2104701;28;20195;-69
2022/08/25 03:09:15;;;;;;;17.40;10.50;;;;;;;22.31;100.00;101250.19;2104992;28;20202;-69
2022/08/25 03:10:17;;;;;;;19.40;10.83;;;;;;;22.35;100.00;101264.09;2103650;28;20199;-69
2022/08/25 03:11:18;;;;;;;17.57;10.07;;;;;;;22.10;100.00;101223.28;2103371;28;20273;-69
2022/08/25 03:12:19;;;;;;;13.70;9.70;;;;;;;22.36;100.00;101251.53;2104930;28;20179;-69
2022/08/25 03:13:20;;;;;;;19.23;10.30;;;;;;;22.39;100.00;101265.44;2104395;28;20312;-69
2022/08/25 03:14:21;;;;;;;19.40;9.37;;;;;;;22.27;100.00;101243.22;2104614;28;20179;-69
2022/08/25 03:15:24;;;;;;;23.20;9.83;;;;;;;22.36;100.00;101257.19;2103696;28;20195;-69
2022/08/25 03:16:25;;;;;;;25.40;8.90;;;;;;;22.18;100.00;101241.34;2104351;28;20655;-69
2022/08/25 03:17:25;;;;;;;20.93;8.90;;;;;;;22.30;100.00;101256.34;2104065;28;20581;-69
2022/08/25 03:18:26;;;;;;;14.13;8.50;;;;;;;22.28;100.00;101256.06;2104622;28;20167;-69
2022/08/25 03:19:26;;;;;;;23.93;9.10;;;;;;;22.26;100.00;101248.09;2104918;28;20739;-69
2022/08/25 03:20:27;;;;;;;17.43;9.50;;;;;;;22.24;100.00;101252.69;2105222;28;20235;-68
2022/08/25 03:21:28;;;;;;;15.73;9.00;;;;;;;22.16;100.00;101254.41;2105151;28;20236;-68
2022/08/25 03:22:29;;;;;;;20.17;9.37;;;;;;;21.71;100.00;101188.25;2104883;28;20183;-69
2022/08/25 03:23:29;;;;;;;17.37;9.90;;;;;;;22.10;100.00;101253.56;2104516;28;20194;-69
2022/08/25 03:24:30;;;;;;;17.90;10.17;;;;;;;22.08;100.00;101259.72;2104139;28;20175;-69
2022/08/25 03:26:52;;;;;;;14.33;9.60;;;;;;;21.45;100.00;101170.44;2103597;28;20285;-69
2022/08/25 03:27:53;;;;;;;16.83;9.90;;;;;;;21.98;100.00;101251.88;2104450;28;20223;-69
2022/08/25 03:28:56;;;;;;;21.00;10.20;;;;;;;22.00;100.00;101260.66;2104618;28;20236;-69
2022/08/25 03:29:57;;;;;;;16.07;9.57;;;;;;;21.98;100.00;101251.88;2104720;28;20193;-69
2022/08/25 03:30:59;;;;;;;18.53;9.23;;;;;;;21.95;100.00;101256.47;2104890;28;20191;-69
2022/08/25 03:32:00;;;;;;;15.30;9.33;;;;;;;21.90;100.00;101257.19;2104449;28;20351;-69
2022/08/25 03:33:01;;;;;;;16.27;9.10;;;;;;;21.87;100.00;101251.75;2104185;28;20682;-69
2022/08/25 03:34:02;;;;;;;13.43;9.43;;;;;;;21.86;100.00;101259.44;2104133;28;20883;-69
2022/08/25 03:35:03;;;;;;;16.17;10.13;;;;;;;21.72;100.00;101246.22;2103786;28;20187;-69
2022/08/25 03:36:05;;;;;;;12.97;9.00;;;;;;;21.84;100.00;101264.03;2104525;28;20213;-68
2022/08/25 03:37:07;;;;;;;14.60;9.73;;;;;;;21.72;100.00;101243.38;2103817;28;20598;-69
2022/08/25 03:38:07;;;;;;;14.27;10.13;;;;;;;21.86;100.00;101269.97;2103772;28;20582;-69
2022/08/25 03:39:08;;;;;;;16.40;9.43;;;;;;;21.29;100.00;101181.53;2104778;28;20198;-68
2022/08/25 03:40:12;;;;;;;14.27;10.07;;;;;;;21.88;100.00;101267.41;2104321;28;20651;-69
2022/08/25 03:41:23;;;;;;;18.10;10.03;;;;;;;21.90;100.00;101264.88;2104857;28;20587;-69
2022/08/25 03:42:25;;;;;;;17.00;10.67;;;;;;;21.88;100.00;101259.72;2104605;28;20933;-68
2022/08/25 03:43:25;;;;;;;14.73;9.93;;;;;;;21.70;100.00;101231.81;2105306;28;20182;-69
2022/08/25 03:44:26;;;;;;;14.20;10.03;;;;;;;21.88;100.00;101262.56;2104579;28;20183;-69
2022/08/25 03:45:26;;;;;;;15.83;10.27;;;;;;;21.89;100.00;101263.31;2104120;28;20229;-69
2022/08/25 03:46:29;;;;;;;19.17;10.47;;;;;;;21.92;100.00;101265.94;2104034;28;20217;-69
2022/08/25 03:47:30;;;;;;;19.50;10.33;;;;;;;21.90;100.00;101262.06;2104069;28;20198;-69
2022/08/25 03:48:30;;;;;;;15.20;10.73;;;;;;;21.90;100.00;101260.00;2104659;28;20197;-69
2022/08/25 03:49:31;;;;;;;16.77;9.73;;;;;;;21.93;100.00;101261.84;2104556;28;20211;-69
2022/08/25 03:50:31;;;;;;;16.10;9.80;;;;;;;21.94;100.00;101265.44;2104737;28;20262;-69
2022/08/25 03:51:41;;;;;;;16.37;10.47;;;;;;;21.92;100.00;101270.81;2104976;28;20255;-69
2022/08/25 03:52:41;;;;;;;21.30;10.57;;;;;;;21.60;100.00;101221.13;2104941;28;20214;-68
2022/08/25 03:53:42;;;;;;;15.90;10.20;;;;;;;21.88;100.00;101275.88;2104183;28;20424;-68
2022/08/25 03:54:43;;;;;;;20.43;10.30;;;;;;;21.78;100.00;101263.97;2104010;28;20567;-68
2022/08/25 03:55:44;;;;;;;20.93;9.90;;;;;;;21.88;100.00;101276.66;2104574;28;20183;-69
2022/08/25 03:56:45;;;;;;;16.73;10.43;;;;;;;21.82;100.00;101267.38;2104289;28;20199;-69
2022/08/25 03:57:45;;;;;;;16.60;10.30;;;;;;;21.89;100.00;101274.59;2104161;28;20183;-69
2022/08/25 03:58:46;;;;;;;18.30;9.90;;;;;;;21.88;100.00;101279.50;2104013;28;20202;-69
2022/08/25 03:59:47;;;;;;;15.83;11.13;;;;;;;21.87;100.00;101275.13;2104193;28;20237;-69
2022/08/25 04:00:47;;;;;;;15.80;10.17;;;;;;;21.88;100.00;101273.06;2104322;28;20175;-68
2022/08/25 04:01:49;;;;;;;20.77;10.53;;;;;;;21.75;100.00;101255.72;2105096;28;20182;-68
2022/08/25 04:02:49;;;;;;;19.83;10.33;;;;;;;21.55;100.00;101222.59;2105508;28;20709;-69
2022/08/25 04:03:50;;;;;;;18.93;10.90;;;;;;;21.95;100.00;101283.94;2104713;28;20606;-69
2022/08/25 04:04:50;;;;;;;16.97;10.83;;;;;;;21.95;100.00;101275.47;2104248;28;20182;-69
2022/08/25 04:05:51;;;;;;;22.57;11.33;;;;;;;21.96;100.00;101279.84;2104548;28;20195;-69
2022/08/25 04:06:51;;;;;;;15.77;10.23;;;;;;;22.01;100.00;101279.88;2104251;28;20190;-69
2022/08/25 04:07:52;;;;;;;20.67;11.87;;;;;;;22.02;100.00;101289.13;2104361;28;20218;-69
2022/08/25 04:08:52;;;;;;;27.07;11.00;;;;;;;21.87;100.00;101263.03;2104092;28;20175;-69
2022/08/25 04:09:55;;;;;;;19.33;10.23;;;;;;;22.04;100.00;101283.75;2105173;28;20179;-69
2022/08/25 04:10:55;;;;;;;20.23;10.67;;;;;;;22.04;100.00;101283.75;2104542;28;20210;-69
2022/08/25 04:11:56;;;;;;;19.83;10.47;;;;;;;22.06;100.00;101286.88;2104644;28;20183;-69
2022/08/25 04:12:57;;;;;;;15.97;10.40;;;;;;;21.67;100.00;101232.00;2104257;28;20186;-68
2022/08/25 04:13:59;;;;;;;16.83;10.30;;;;;;;22.12;100.00;101282.06;2104822;28;20183;-69
2022/08/25 04:15:01;;;;;;;21.10;10.03;;;;;;;22.13;100.00;101281.59;2104098;28;20187;-69
2022/08/25 04:16:03;;;;;;;19.53;11.10;;;;;;;22.16;100.00;101283.41;2104405;28;20191;-68
2022/08/25 04:17:04;;;;;;;19.50;11.00;;;;;;;22.15;100.00;101281.84;2103910;28;20183;-68
2022/08/25 04:18:04;;;;;;;18.93;10.47;;;;;;;22.21;100.00;101291.16;2103845;28;20199;-68
2022/08/25 04:19:08;;;;;;;17.60;11.03;;;;;;;21.87;100.00;101229.97;2104975;28;20279;-69
2022/08/25 04:20:10;;;;;;;18.40;11.00;;;;;;;22.25;100.00;101286.06;2103420;28;20178;-69
2022/08/25 04:21:11;;;;;;;16.60;10.40;;;;;;;22.25;100.00;101288.91;2103234;28;20277;-68
2022/08/25 04:22:12;;;;;;;18.60;11.23;;;;;;;22.25;100.00;101286.06;2104948;28;20185;-67
2022/08/25 04:23:12;;;;;;;19.33;10.77;;;;;;;22.28;100.00;101284.31;2104932;28;20197;-69
2022/08/25 04:24:13;;;;;;;17.23;10.33;;;;;;;22.30;100.00;101288.19;2104403;28;20187;-68
2022/08/25 04:25:14;;;;;;;17.60;10.77;;;;;;;22.32;100.00;101288.44;2100717;28;20252;-67
2022/08/25 04:26:21;;;;;;;18.27;10.40;;;;;;;22.32;100.00;101287.69;2102732;28;20288;-67
2022/08/25 04:27:21;;;;;;;16.40;10.33;;;;;;;22.29;100.00;101285.84;2103847;28;20316;-67
2022/08/25 04:28:22;;;;;;;14.60;10.10;;;;;;;22.31;100.00;101289.72;2105558;28;20191;-68
2022/08/25 04:29:24;;;;;;;20.50;11.47;;;;;;;22.35;100.00;101283.84;2106057;28;20186;-68
2022/08/25 04:30:25;;;;;;;15.90;10.27;;;;;;;22.35;100.00;101295.94;2104888;28;20184;-68
2022/08/25 04:31:27;;;;;;;15.67;10.60;;;;;;;22.34;100.00;101280.28;2106314;28;20171;-67
2022/08/25 04:32:27;;;;;;;16.37;10.90;;;;;;;22.40;100.00;101291.59;2104362;28;20186;-67
2022/08/25 04:33:28;;;;;;;17.67;10.73;;;;;;;22.37;100.00;101279.25;2104248;28;20214;-68
2022/08/25 04:34:28;;;;;;;16.13;10.17;;;;;;;22.07;100.00;101221.47;2104945;28;20210;-68
2022/08/25 04:35:29;;;;;;;17.37;10.60;;;;;;;22.41;100.00;101279.81;2104558;28;20252;-67
2022/08/25 04:36:30;;;;;;;15.73;10.20;;;;;;;22.47;100.00;101294.78;2104802;28;20707;-68
2022/08/25 04:37:32;;;;;;;15.43;10.60;;;;;;;22.50;100.00;101287.38;2104552;28;20189;-68
2022/08/25 04:38:32;;;;;;;18.07;10.73;;;;;;;22.36;100.00;101272.06;2105450;28;20461;-68
2022/08/25 04:39:33;;;;;;;15.27;10.83;;;;;;;22.14;100.00;101240.00;2106220;28;20253;-68
2022/08/25 04:40:34;;;;;;;17.70;11.53;;;;;;;22.50;100.00;101284.56;2105003;28;20183;-67
2022/08/25 04:41:34;;;;;;;16.10;11.23;;;;;;;22.13;100.00;101227.94;2105788;28;20772;-68